HTMP weather

Mpanda Airport
Mpanda, Rukwa Region, Tanzania

Public forecast

Using degrees Celsius for public forecast. Weather courtesy of forecast.io.

Current aviation weather report (METAR) for Mpanda Airport

Report is more than 6 hours old.

Retrieved 2020/03/14 05:00 UTC (20 days ago):

HTMP 140500Z 00000KT 9999 BKN017 FEW018CB SCT070 21/20 Q1020

Closest aviation forecast (TAF) to Mpanda Airport

Forecast is more than 12 hours old.

Closest forecast is Kigoma Airport, 122.1 nm (226.1 km) NW. Retrieved 2020/04/02 12:21 UTC (16 hours ago):

TAF HTKA 021100Z 0212/0312 00000KT 9999 SCT023 FEW024CB BKN110 TEMPO 0212/0215 33011KT DZ BKN023 FEW024CB PROB30 BECMG 0220/0301 TSRA